sensor_id;sensor_type;location;lat;lon;timestamp;P1;durP1;ratioP1;P2;durP2;ratioP2
21170;SDS011;10743;52.160;20.910;2022-11-15T00:00:25;198.00;;;64.80;;
21170;SDS011;10743;52.160;20.910;2022-11-15T00:03:13;198.20;;;65.07;;
21170;SDS011;10743;52.160;20.910;2022-11-15T00:06:03;200.47;;;65.10;;
21170;SDS011;10743;52.160;20.910;2022-11-15T00:08:49;195.20;;;65.47;;
21170;SDS011;10743;52.160;20.910;2022-11-15T00:11:38;200.73;;;66.87;;
21170;SDS011;10743;52.160;20.910;2022-11-15T00:14:24;193.07;;;65.83;;
21170;SDS011;10743;52.160;20.910;2022-11-15T00:17:09;201.53;;;65.57;;
21170;SDS011;10743;52.160;20.910;2022-11-15T00:19:55;195.43;;;65.53;;
21170;SDS011;10743;52.160;20.910;2022-11-15T00:22:40;199.77;;;65.37;;
21170;SDS011;10743;52.160;20.910;2022-11-15T00:25:26;195.83;;;64.37;;
21170;SDS011;10743;52.160;20.910;2022-11-15T00:28:12;203.87;;;66.77;;
21170;SDS011;10743;52.160;20.910;2022-11-15T00:31:01;195.63;;;64.43;;
21170;SDS011;10743;52.160;20.910;2022-11-15T00:33:53;197.63;;;64.10;;
21170;SDS011;10743;52.160;20.910;2022-11-15T00:36:38;198.60;;;65.57;;
21170;SDS011;10743;52.160;20.910;2022-11-15T00:39:24;195.77;;;65.67;;
21170;SDS011;10743;52.160;20.910;2022-11-15T00:42:09;196.33;;;67.30;;
21170;SDS011;10743;52.160;20.910;2022-11-15T00:44:55;194.13;;;65.37;;
21170;SDS011;10743;52.160;20.910;2022-11-15T00:47:40;207.13;;;68.00;;
21170;SDS011;10743;52.160;20.910;2022-11-15T00:50:29;198.60;;;65.97;;
21170;SDS011;10743;52.160;20.910;2022-11-15T00:53:15;196.10;;;65.20;;
21170;SDS011;10743;52.160;20.910;2022-11-15T00:56:01;192.43;;;65.60;;
21170;SDS011;10743;52.160;20.910;2022-11-15T00:58:47;196.03;;;66.70;;
21170;SDS011;10743;52.160;20.910;2022-11-15T01:01:32;194.70;;;65.03;;
21170;SDS011;10743;52.160;20.910;2022-11-15T01:04:17;196.00;;;64.47;;
21170;SDS011;10743;52.160;20.910;2022-11-15T01:07:03;198.33;;;64.80;;
21170;SDS011;10743;52.160;20.910;2022-11-15T01:09:48;192.77;;;64.17;;
21170;SDS011;10743;52.160;20.910;2022-11-15T01:12:34;205.67;;;65.47;;
21170;SDS011;10743;52.160;20.910;2022-11-15T01:15:19;199.27;;;66.37;;
21170;SDS011;10743;52.160;20.910;2022-11-15T01:18:04;203.37;;;65.87;;
21170;SDS011;10743;52.160;20.910;2022-11-15T01:20:49;199.90;;;66.37;;
21170;SDS011;10743;52.160;20.910;2022-11-15T01:23:35;201.50;;;65.53;;
21170;SDS011;10743;52.160;20.910;2022-11-15T01:26:20;198.53;;;65.90;;
21170;SDS011;10743;52.160;20.910;2022-11-15T01:29:07;200.10;;;65.60;;
21170;SDS011;10743;52.160;20.910;2022-11-15T01:31:53;194.17;;;64.93;;
21170;SDS011;10743;52.160;20.910;2022-11-15T01:34:38;194.07;;;64.87;;
21170;SDS011;10743;52.160;20.910;2022-11-15T01:37:24;193.40;;;64.80;;
21170;SDS011;10743;52.160;20.910;2022-11-15T01:40:10;197.97;;;65.63;;
21170;SDS011;10743;52.160;20.910;2022-11-15T01:42:55;208.83;;;69.83;;
21170;SDS011;10743;52.160;20.910;2022-11-15T01:45:41;196.30;;;64.80;;
21170;SDS011;10743;52.160;20.910;2022-11-15T01:48:36;197.37;;;65.83;;
21170;SDS011;10743;52.160;20.910;2022-11-15T01:51:22;202.13;;;67.13;;
21170;SDS011;10743;52.160;20.910;2022-11-15T01:54:11;205.03;;;69.60;;
21170;SDS011;10743;52.160;20.910;2022-11-15T01:57:03;203.80;;;68.63;;
21170;SDS011;10743;52.160;20.910;2022-11-15T01:59:53;209.10;;;67.97;;
21170;SDS011;10743;52.160;20.910;2022-11-15T02:02:39;195.70;;;65.00;;
21170;SDS011;10743;52.160;20.910;2022-11-15T02:05:25;199.97;;;66.03;;
21170;SDS011;10743;52.160;20.910;2022-11-15T02:08:11;204.37;;;66.93;;
21170;SDS011;10743;52.160;20.910;2022-11-15T02:11:08;210.07;;;67.73;;
21170;SDS011;10743;52.160;20.910;2022-11-15T02:13:54;200.07;;;65.77;;
21170;SDS011;10743;52.160;20.910;2022-11-15T02:16:44;201.73;;;67.47;;
21170;SDS011;10743;52.160;20.910;2022-11-15T02:20:07;207.07;;;68.00;;
21170;SDS011;10743;52.160;20.910;2022-11-15T02:23:41;205.50;;;68.33;;
21170;SDS011;10743;52.160;20.910;2022-11-15T02:30:55;204.23;;;66.20;;
21170;SDS011;10743;52.160;20.910;2022-11-15T02:43:41;203.90;;;67.27;;
21170;SDS011;10743;52.160;20.910;2022-11-15T02:47:06;198.50;;;67.27;;
21170;SDS011;10743;52.160;20.910;2022-11-15T02:50:02;203.67;;;67.70;;
21170;SDS011;10743;52.160;20.910;2022-11-15T02:52:53;198.60;;;67.27;;
21170;SDS011;10743;52.160;20.910;2022-11-15T02:55:49;196.83;;;66.17;;
21170;SDS011;10743;52.160;20.910;2022-11-15T02:58:47;201.33;;;64.87;;
21170;SDS011;10743;52.160;20.910;2022-11-15T03:02:08;204.03;;;65.83;;
21170;SDS011;10743;52.160;20.910;2022-11-15T03:05:41;200.93;;;66.30;;
21170;SDS011;10743;52.160;20.910;2022-11-15T03:09:06;195.07;;;65.43;;
21170;SDS011;10743;52.160;20.910;2022-11-15T03:15:23;201.40;;;65.80;;
21170;SDS011;10743;52.160;20.910;2022-11-15T03:18:21;206.23;;;67.50;;
21170;SDS011;10743;52.160;20.910;2022-11-15T03:21:18;200.93;;;66.00;;
21170;SDS011;10743;52.160;20.910;2022-11-15T03:24:06;207.33;;;68.47;;
21170;SDS011;10743;52.160;20.910;2022-11-15T03:26:53;206.33;;;66.43;;
21170;SDS011;10743;52.160;20.910;2022-11-15T03:29:43;199.70;;;67.17;;
21170;SDS011;10743;52.160;20.910;2022-11-15T03:32:36;206.43;;;67.13;;
21170;SDS011;10743;52.160;20.910;2022-11-15T03:35:30;202.10;;;66.60;;
21170;SDS011;10743;52.160;20.910;2022-11-15T03:38:29;192.90;;;63.87;;
21170;SDS011;10743;52.160;20.910;2022-11-15T03:41:28;206.00;;;66.17;;
21170;SDS011;10743;52.160;20.910;2022-11-15T03:47:40;209.80;;;68.20;;
21170;SDS011;10743;52.160;20.910;2022-11-15T03:50:31;201.77;;;67.90;;
21170;SDS011;10743;52.160;20.910;2022-11-15T03:53:17;200.43;;;64.73;;
21170;SDS011;10743;52.160;20.910;2022-11-15T03:56:02;205.63;;;68.63;;
21170;SDS011;10743;52.160;20.910;2022-11-15T03:58:48;199.10;;;65.90;;
21170;SDS011;10743;52.160;20.910;2022-11-15T04:01:33;206.00;;;67.20;;
21170;SDS011;10743;52.160;20.910;2022-11-15T04:04:19;207.00;;;66.07;;
21170;SDS011;10743;52.160;20.910;2022-11-15T04:07:05;205.37;;;67.03;;
21170;SDS011;10743;52.160;20.910;2022-11-15T04:09:51;200.57;;;65.40;;
21170;SDS011;10743;52.160;20.910;2022-11-15T04:12:48;199.53;;;66.67;;
21170;SDS011;10743;52.160;20.910;2022-11-15T04:15:34;209.60;;;66.93;;
21170;SDS011;10743;52.160;20.910;2022-11-15T04:18:20;202.67;;;65.90;;
21170;SDS011;10743;52.160;20.910;2022-11-15T04:21:05;203.43;;;65.77;;
21170;SDS011;10743;52.160;20.910;2022-11-15T04:24:11;205.80;;;66.87;;
21170;SDS011;10743;52.160;20.910;2022-11-15T04:26:57;197.40;;;66.40;;
21170;SDS011;10743;52.160;20.910;2022-11-15T04:29:43;211.20;;;70.23;;
21170;SDS011;10743;52.160;20.910;2022-11-15T04:32:28;199.63;;;65.97;;
21170;SDS011;10743;52.160;20.910;2022-11-15T04:35:14;202.73;;;64.43;;
21170;SDS011;10743;52.160;20.910;2022-11-15T04:37:59;194.37;;;63.53;;
21170;SDS011;10743;52.160;20.910;2022-11-15T04:40:46;207.20;;;66.50;;
21170;SDS011;10743;52.160;20.910;2022-11-15T04:43:32;197.23;;;65.67;;
21170;SDS011;10743;52.160;20.910;2022-11-15T04:46:18;190.87;;;63.03;;
21170;SDS011;10743;52.160;20.910;2022-11-15T04:49:03;203.00;;;65.57;;
21170;SDS011;10743;52.160;20.910;2022-11-15T04:51:48;196.90;;;65.63;;
21170;SDS011;10743;52.160;20.910;2022-11-15T04:54:33;189.53;;;62.07;;
21170;SDS011;10743;52.160;20.910;2022-11-15T04:57:19;201.03;;;62.63;;
21170;SDS011;10743;52.160;20.910;2022-11-15T05:00:05;203.83;;;64.47;;
21170;SDS011;10743;52.160;20.910;2022-11-15T05:02:55;197.00;;;62.93;;
21170;SDS011;10743;52.160;20.910;2022-11-15T05:06:00;201.27;;;64.77;;
21170;SDS011;10743;52.160;20.910;2022-11-15T05:08:46;202.67;;;64.80;;
21170;SDS011;10743;52.160;20.910;2022-11-15T05:11:31;198.47;;;64.77;;
21170;SDS011;10743;52.160;20.910;2022-11-15T05:14:17;200.07;;;64.57;;
21170;SDS011;10743;52.160;20.910;2022-11-15T05:17:02;197.53;;;65.23;;
21170;SDS011;10743;52.160;20.910;2022-11-15T05:19:47;200.80;;;66.23;;
21170;SDS011;10743;52.160;20.910;2022-11-15T05:22:33;198.97;;;64.77;;
21170;SDS011;10743;52.160;20.910;2022-11-15T05:25:18;199.50;;;65.13;;
21170;SDS011;10743;52.160;20.910;2022-11-15T05:28:04;204.23;;;65.67;;
21170;SDS011;10743;52.160;20.910;2022-11-15T05:30:49;195.40;;;64.07;;
21170;SDS011;10743;52.160;20.910;2022-11-15T05:33:35;198.50;;;63.43;;
21170;SDS011;10743;52.160;20.910;2022-11-15T05:39:23;192.90;;;63.90;;
21170;SDS011;10743;52.160;20.910;2022-11-15T05:42:11;193.33;;;62.40;;
21170;SDS011;10743;52.160;20.910;2022-11-15T05:44:59;186.60;;;62.03;;
21170;SDS011;10743;52.160;20.910;2022-11-15T05:47:48;201.17;;;65.37;;
21170;SDS011;10743;52.160;20.910;2022-11-15T05:50:35;199.33;;;65.10;;
21170;SDS011;10743;52.160;20.910;2022-11-15T05:53:23;191.60;;;63.30;;
21170;SDS011;10743;52.160;20.910;2022-11-15T05:56:10;191.67;;;62.63;;
21170;SDS011;10743;52.160;20.910;2022-11-15T05:58:56;192.07;;;64.57;;
21170;SDS011;10743;52.160;20.910;2022-11-15T06:01:44;196.40;;;64.57;;
21170;SDS011;10743;52.160;20.910;2022-11-15T06:04:30;195.27;;;64.13;;
21170;SDS011;10743;52.160;20.910;2022-11-15T06:07:15;193.90;;;63.47;;
21170;SDS011;10743;52.160;20.910;2022-11-15T06:10:01;188.07;;;63.00;;
21170;SDS011;10743;52.160;20.910;2022-11-15T06:12:48;186.67;;;64.13;;
21170;SDS011;10743;52.160;20.910;2022-11-15T06:15:48;179.23;;;59.37;;
21170;SDS011;10743;52.160;20.910;2022-11-15T06:18:34;182.33;;;59.77;;
21170;SDS011;10743;52.160;20.910;2022-11-15T06:21:20;188.17;;;63.37;;
21170;SDS011;10743;52.160;20.910;2022-11-15T06:24:06;191.03;;;66.20;;
21170;SDS011;10743;52.160;20.910;2022-11-15T06:26:52;185.80;;;63.27;;
21170;SDS011;10743;52.160;20.910;2022-11-15T06:29:38;183.67;;;61.17;;
21170;SDS011;10743;52.160;20.910;2022-11-15T06:32:23;187.43;;;61.37;;
21170;SDS011;10743;52.160;20.910;2022-11-15T06:35:08;192.43;;;64.27;;
21170;SDS011;10743;52.160;20.910;2022-11-15T06:37:54;188.57;;;61.90;;
21170;SDS011;10743;52.160;20.910;2022-11-15T06:40:40;185.47;;;60.90;;
21170;SDS011;10743;52.160;20.910;2022-11-15T06:43:25;194.63;;;71.60;;
21170;SDS011;10743;52.160;20.910;2022-11-15T06:46:11;189.27;;;62.87;;
21170;SDS011;10743;52.160;20.910;2022-11-15T06:48:56;185.73;;;66.00;;
21170;SDS011;10743;52.160;20.910;2022-11-15T06:51:42;185.17;;;66.87;;
21170;SDS011;10743;52.160;20.910;2022-11-15T06:54:27;184.97;;;68.23;;
21170;SDS011;10743;52.160;20.910;2022-11-15T06:57:12;187.20;;;61.17;;
21170;SDS011;10743;52.160;20.910;2022-11-15T06:59:58;189.27;;;61.90;;
21170;SDS011;10743;52.160;20.910;2022-11-15T07:02:43;188.47;;;63.77;;
21170;SDS011;10743;52.160;20.910;2022-11-15T07:05:29;191.80;;;62.27;;
21170;SDS011;10743;52.160;20.910;2022-11-15T07:08:15;191.70;;;61.77;;
21170;SDS011;10743;52.160;20.910;2022-11-15T07:11:01;187.07;;;61.43;;
21170;SDS011;10743;52.160;20.910;2022-11-15T07:13:49;188.07;;;63.80;;
21170;SDS011;10743;52.160;20.910;2022-11-15T07:16:35;185.97;;;62.20;;
21170;SDS011;10743;52.160;20.910;2022-11-15T07:19:21;190.90;;;75.57;;
21170;SDS011;10743;52.160;20.910;2022-11-15T07:22:07;182.70;;;59.60;;
21170;SDS011;10743;52.160;20.910;2022-11-15T07:24:52;186.80;;;61.57;;
21170;SDS011;10743;52.160;20.910;2022-11-15T07:27:37;185.17;;;61.90;;
21170;SDS011;10743;52.160;20.910;2022-11-15T07:30:23;187.13;;;61.13;;
21170;SDS011;10743;52.160;20.910;2022-11-15T07:33:11;183.20;;;59.50;;
21170;SDS011;10743;52.160;20.910;2022-11-15T07:36:00;185.30;;;62.50;;
21170;SDS011;10743;52.160;20.910;2022-11-15T07:38:49;188.23;;;63.03;;
21170;SDS011;10743;52.160;20.910;2022-11-15T07:41:34;182.03;;;60.67;;
21170;SDS011;10743;52.160;20.910;2022-11-15T07:44:20;184.63;;;62.77;;
21170;SDS011;10743;52.160;20.910;2022-11-15T07:47:05;180.27;;;58.93;;
21170;SDS011;10743;52.160;20.910;2022-11-15T07:49:50;183.63;;;61.40;;
21170;SDS011;10743;52.160;20.910;2022-11-15T07:52:37;186.77;;;60.40;;
21170;SDS011;10743;52.160;20.910;2022-11-15T07:55:22;186.57;;;60.80;;
21170;SDS011;10743;52.160;20.910;2022-11-15T07:58:10;185.40;;;60.63;;
21170;SDS011;10743;52.160;20.910;2022-11-15T08:00:57;196.73;;;69.50;;
21170;SDS011;10743;52.160;20.910;2022-11-15T08:03:42;183.40;;;61.60;;
21170;SDS011;10743;52.160;20.910;2022-11-15T08:06:28;190.23;;;61.53;;
21170;SDS011;10743;52.160;20.910;2022-11-15T08:09:13;190.57;;;60.20;;
21170;SDS011;10743;52.160;20.910;2022-11-15T08:11:58;178.20;;;60.30;;
21170;SDS011;10743;52.160;20.910;2022-11-15T08:14:44;185.13;;;67.50;;
21170;SDS011;10743;52.160;20.910;2022-11-15T08:17:29;179.20;;;60.07;;
21170;SDS011;10743;52.160;20.910;2022-11-15T08:20:17;176.73;;;59.90;;
21170;SDS011;10743;52.160;20.910;2022-11-15T08:23:04;183.60;;;61.30;;
21170;SDS011;10743;52.160;20.910;2022-11-15T08:25:51;195.40;;;63.53;;
21170;SDS011;10743;52.160;20.910;2022-11-15T08:28:36;181.73;;;64.43;;
21170;SDS011;10743;52.160;20.910;2022-11-15T08:31:23;186.93;;;61.80;;
21170;SDS011;10743;52.160;20.910;2022-11-15T08:34:08;188.83;;;63.70;;
21170;SDS011;10743;52.160;20.910;2022-11-15T08:36:53;200.40;;;74.63;;
21170;SDS011;10743;52.160;20.910;2022-11-15T08:39:38;188.07;;;67.17;;
21170;SDS011;10743;52.160;20.910;2022-11-15T08:42:24;189.50;;;60.50;;
21170;SDS011;10743;52.160;20.910;2022-11-15T08:45:09;182.30;;;59.17;;
21170;SDS011;10743;52.160;20.910;2022-11-15T08:47:55;179.53;;;59.97;;
21170;SDS011;10743;52.160;20.910;2022-11-15T08:50:41;185.83;;;60.13;;
21170;SDS011;10743;52.160;20.910;2022-11-15T08:53:28;189.23;;;63.07;;
21170;SDS011;10743;52.160;20.910;2022-11-15T08:56:14;190.43;;;65.63;;
21170;SDS011;10743;52.160;20.910;2022-11-15T08:59:00;191.23;;;61.53;;
21170;SDS011;10743;52.160;20.910;2022-11-15T09:01:45;188.10;;;70.37;;
21170;SDS011;10743;52.160;20.910;2022-11-15T09:04:31;188.77;;;62.47;;
21170;SDS011;10743;52.160;20.910;2022-11-15T09:07:16;180.33;;;60.23;;
21170;SDS011;10743;52.160;20.910;2022-11-15T09:10:02;193.23;;;62.97;;
21170;SDS011;10743;52.160;20.910;2022-11-15T09:12:49;187.57;;;65.33;;
21170;SDS011;10743;52.160;20.910;2022-11-15T09:15:34;204.57;;;75.30;;
21170;SDS011;10743;52.160;20.910;2022-11-15T09:18:20;186.23;;;64.17;;
21170;SDS011;10743;52.160;20.910;2022-11-15T09:21:07;182.33;;;61.80;;
21170;SDS011;10743;52.160;20.910;2022-11-15T09:23:53;179.53;;;59.97;;
21170;SDS011;10743;52.160;20.910;2022-11-15T09:26:39;198.43;;;66.50;;
21170;SDS011;10743;52.160;20.910;2022-11-15T09:29:25;188.00;;;62.93;;
21170;SDS011;10743;52.160;20.910;2022-11-15T09:32:11;191.03;;;61.70;;
21170;SDS011;10743;52.160;20.910;2022-11-15T09:34:57;183.90;;;61.77;;
21170;SDS011;10743;52.160;20.910;2022-11-15T09:37:42;185.57;;;61.67;;
21170;SDS011;10743;52.160;20.910;2022-11-15T09:40:29;188.40;;;62.90;;
21170;SDS011;10743;52.160;20.910;2022-11-15T09:46:44;186.93;;;60.23;;
21170;SDS011;10743;52.160;20.910;2022-11-15T09:50:08;180.50;;;60.47;;
21170;SDS011;10743;52.160;20.910;2022-11-15T09:52:39;186.07;;;62.50;;
21170;SDS011;10743;52.160;20.910;2022-11-15T09:55:11;181.30;;;60.17;;
21170;SDS011;10743;52.160;20.910;2022-11-15T09:57:50;188.00;;;60.73;;
21170;SDS011;10743;52.160;20.910;2022-11-15T10:00:44;183.40;;;61.53;;
21170;SDS011;10743;52.160;20.910;2022-11-15T10:03:16;192.80;;;62.57;;
21170;SDS011;10743;52.160;20.910;2022-11-15T10:05:57;188.20;;;62.83;;
21170;SDS011;10743;52.160;20.910;2022-11-15T10:11:30;189.33;;;112.77;;
21170;SDS011;10743;52.160;20.910;2022-11-15T10:14:11;195.57;;;126.60;;
21170;SDS011;10743;52.160;20.910;2022-11-15T10:22:23;205.97;;;87.37;;
21170;SDS011;10743;52.160;20.910;2022-11-15T10:25:16;194.83;;;65.30;;
21170;SDS011;10743;52.160;20.910;2022-11-15T10:27:54;195.33;;;64.23;;
21170;SDS011;10743;52.160;20.910;2022-11-15T10:30:36;193.20;;;62.97;;
21170;SDS011;10743;52.160;20.910;2022-11-15T10:41:16;257.43;;;73.47;;
21170;SDS011;10743;52.160;20.910;2022-11-15T10:49:26;184.43;;;61.03;;
21170;SDS011;10743;52.160;20.910;2022-11-15T10:51:56;183.17;;;62.13;;
21170;SDS011;10743;52.160;20.910;2022-11-15T10:57:12;193.73;;;67.27;;
21170;SDS011;10743;52.160;20.910;2022-11-15T10:59:43;203.03;;;66.03;;
21170;SDS011;10743;52.160;20.910;2022-11-15T11:02:27;205.83;;;69.10;;
21170;SDS011;10743;52.160;20.910;2022-11-15T11:05:00;205.27;;;71.03;;
21170;SDS011;10743;52.160;20.910;2022-11-15T11:07:31;198.77;;;66.97;;
21170;SDS011;10743;52.160;20.910;2022-11-15T11:10:20;201.77;;;73.13;;
21170;SDS011;10743;52.160;20.910;2022-11-15T11:13:14;198.03;;;65.47;;
21170;SDS011;10743;52.160;20.910;2022-11-15T11:15:53;210.63;;;68.30;;
21170;SDS011;10743;52.160;20.910;2022-11-15T11:21:37;211.87;;;68.37;;
21170;SDS011;10743;52.160;20.910;2022-11-15T11:24:31;205.23;;;67.77;;
21170;SDS011;10743;52.160;20.910;2022-11-15T11:27:30;204.83;;;69.13;;
21170;SDS011;10743;52.160;20.910;2022-11-15T11:30:27;201.43;;;66.50;;
21170;SDS011;10743;52.160;20.910;2022-11-15T11:36:11;201.57;;;67.93;;
21170;SDS011;10743;52.160;20.910;2022-11-15T11:38:57;197.10;;;62.97;;
21170;SDS011;10743;52.160;20.910;2022-11-15T11:51:03;211.77;;;73.90;;
21170;SDS011;10743;52.160;20.910;2022-11-15T11:53:46;198.57;;;66.53;;
21170;SDS011;10743;52.160;20.910;2022-11-15T11:56:24;207.67;;;67.23;;
21170;SDS011;10743;52.160;20.910;2022-11-15T11:58:59;200.70;;;66.93;;
21170;SDS011;10743;52.160;20.910;2022-11-15T12:01:37;198.17;;;68.17;;
21170;SDS011;10743;52.160;20.910;2022-11-15T12:06:57;205.40;;;68.50;;
21170;SDS011;10743;52.160;20.910;2022-11-15T12:09:38;206.33;;;66.23;;
21170;SDS011;10743;52.160;20.910;2022-11-15T12:15:03;194.30;;;63.77;;
21170;SDS011;10743;52.160;20.910;2022-11-15T12:17:40;199.50;;;65.07;;
21170;SDS011;10743;52.160;20.910;2022-11-15T12:20:15;208.43;;;66.77;;
21170;SDS011;10743;52.160;20.910;2022-11-15T12:23:05;200.57;;;67.03;;
21170;SDS011;10743;52.160;20.910;2022-11-15T12:26:03;203.83;;;68.57;;
21170;SDS011;10743;52.160;20.910;2022-11-15T12:34:12;206.17;;;70.30;;
21170;SDS011;10743;52.160;20.910;2022-11-15T12:36:47;208.27;;;69.77;;
21170;SDS011;10743;52.160;20.910;2022-11-15T12:39:16;201.80;;;65.57;;
21170;SDS011;10743;52.160;20.910;2022-11-15T13:02:35;208.30;;;70.10;;
21170;SDS011;10743;52.160;20.910;2022-11-15T13:12:55;211.03;;;71.50;;
21170;SDS011;10743;52.160;20.910;2022-11-15T13:18:30;203.37;;;70.53;;
21170;SDS011;10743;52.160;20.910;2022-11-15T13:21:04;203.23;;;69.03;;
21170;SDS011;10743;52.160;20.910;2022-11-15T13:24:04;200.47;;;69.03;;
21170;SDS011;10743;52.160;20.910;2022-11-15T13:26:38;208.27;;;69.07;;
21170;SDS011;10743;52.160;20.910;2022-11-15T13:29:14;205.80;;;68.47;;
21170;SDS011;10743;52.160;20.910;2022-11-15T13:31:45;204.67;;;67.90;;
21170;SDS011;10743;52.160;20.910;2022-11-15T13:34:24;211.53;;;69.77;;
21170;SDS011;10743;52.160;20.910;2022-11-15T13:39:46;212.33;;;69.20;;
21170;SDS011;10743;52.160;20.910;2022-11-15T13:42:16;208.07;;;70.90;;
21170;SDS011;10743;52.160;20.910;2022-11-15T13:44:54;212.50;;;71.97;;
21170;SDS011;10743;52.160;20.910;2022-11-15T13:47:27;218.13;;;76.60;;
21170;SDS011;10743;52.160;20.910;2022-11-15T13:49:58;207.73;;;68.53;;
21170;SDS011;10743;52.160;20.910;2022-11-15T13:52:29;205.33;;;71.20;;
21170;SDS011;10743;52.160;20.910;2022-11-15T14:00:25;214.20;;;70.30;;
21170;SDS011;10743;52.160;20.910;2022-11-15T14:03:05;211.97;;;70.17;;
21170;SDS011;10743;52.160;20.910;2022-11-15T14:06:31;198.53;;;66.30;;
21170;SDS011;10743;52.160;20.910;2022-11-15T14:09:02;198.27;;;67.90;;
21170;SDS011;10743;52.160;20.910;2022-11-15T14:11:50;207.93;;;68.40;;
21170;SDS011;10743;52.160;20.910;2022-11-15T14:14:22;222.13;;;76.17;;
21170;SDS011;10743;52.160;20.910;2022-11-15T14:16:52;211.33;;;68.57;;
21170;SDS011;10743;52.160;20.910;2022-11-15T14:30:45;204.63;;;67.93;;
21170;SDS011;10743;52.160;20.910;2022-11-15T14:33:20;213.37;;;68.23;;
21170;SDS011;10743;52.160;20.910;2022-11-15T14:35:56;205.00;;;67.60;;
21170;SDS011;10743;52.160;20.910;2022-11-15T14:38:29;211.03;;;71.33;;
21170;SDS011;10743;52.160;20.910;2022-11-15T14:40:56;212.03;;;68.80;;
21170;SDS011;10743;52.160;20.910;2022-11-15T14:43:24;216.07;;;70.07;;
21170;SDS011;10743;52.160;20.910;2022-11-15T14:45:51;216.00;;;68.63;;
21170;SDS011;10743;52.160;20.910;2022-11-15T14:48:18;203.40;;;67.17;;
21170;SDS011;10743;52.160;20.910;2022-11-15T14:50:45;212.33;;;68.73;;
21170;SDS011;10743;52.160;20.910;2022-11-15T14:53:13;212.07;;;68.83;;
21170;SDS011;10743;52.160;20.910;2022-11-15T14:55:42;204.87;;;65.87;;
21170;SDS011;10743;52.160;20.910;2022-11-15T14:58:10;204.73;;;66.50;;
21170;SDS011;10743;52.160;20.910;2022-11-15T15:00:38;213.60;;;69.23;;
21170;SDS011;10743;52.160;20.910;2022-11-15T15:03:07;207.60;;;67.23;;
21170;SDS011;10743;52.160;20.910;2022-11-15T15:05:39;200.30;;;67.00;;
21170;SDS011;10743;52.160;20.910;2022-11-15T15:08:08;201.50;;;66.93;;
21170;SDS011;10743;52.160;20.910;2022-11-15T15:10:38;210.90;;;69.33;;
21170;SDS011;10743;52.160;20.910;2022-11-15T15:13:18;207.90;;;69.10;;
21170;SDS011;10743;52.160;20.910;2022-11-15T15:15:48;206.07;;;67.03;;
21170;SDS011;10743;52.160;20.910;2022-11-15T15:18:17;211.10;;;68.03;;
21170;SDS011;10743;52.160;20.910;2022-11-15T15:20:47;204.30;;;66.67;;
21170;SDS011;10743;52.160;20.910;2022-11-15T15:23:22;203.77;;;68.47;;
21170;SDS011;10743;52.160;20.910;2022-11-15T15:25:51;205.00;;;68.73;;
21170;SDS011;10743;52.160;20.910;2022-11-15T15:28:19;225.27;;;73.07;;
21170;SDS011;10743;52.160;20.910;2022-11-15T15:30:46;219.07;;;71.40;;
21170;SDS011;10743;52.160;20.910;2022-11-15T15:33:13;214.23;;;70.83;;
21170;SDS011;10743;52.160;20.910;2022-11-15T15:35:40;217.77;;;71.57;;
21170;SDS011;10743;52.160;20.910;2022-11-15T15:38:10;222.57;;;72.60;;
21170;SDS011;10743;52.160;20.910;2022-11-15T15:40:38;222.27;;;73.20;;
21170;SDS011;10743;52.160;20.910;2022-11-15T15:43:05;217.53;;;70.77;;
21170;SDS011;10743;52.160;20.910;2022-11-15T15:45:36;215.90;;;70.90;;
21170;SDS011;10743;52.160;20.910;2022-11-15T15:48:05;212.90;;;71.47;;
21170;SDS011;10743;52.160;20.910;2022-11-15T15:50:37;211.63;;;74.27;;
21170;SDS011;10743;52.160;20.910;2022-11-15T15:53:04;212.80;;;72.10;;
21170;SDS011;10743;52.160;20.910;2022-11-15T15:55:31;203.07;;;66.90;;
21170;SDS011;10743;52.160;20.910;2022-11-15T15:57:58;212.20;;;69.50;;
21170;SDS011;10743;52.160;20.910;2022-11-15T16:00:25;208.50;;;68.27;;
21170;SDS011;10743;52.160;20.910;2022-11-15T16:02:52;202.90;;;66.93;;
21170;SDS011;10743;52.160;20.910;2022-11-15T16:05:20;205.93;;;67.57;;
21170;SDS011;10743;52.160;20.910;2022-11-15T16:07:48;204.77;;;68.03;;
21170;SDS011;10743;52.160;20.910;2022-11-15T16:12:56;218.40;;;69.53;;
21170;SDS011;10743;52.160;20.910;2022-11-15T16:15:25;209.90;;;68.70;;
21170;SDS011;10743;52.160;20.910;2022-11-15T16:17:55;217.47;;;79.33;;
21170;SDS011;10743;52.160;20.910;2022-11-15T16:20:37;214.97;;;77.97;;
21170;SDS011;10743;52.160;20.910;2022-11-15T16:23:11;219.23;;;83.30;;
21170;SDS011;10743;52.160;20.910;2022-11-15T16:25:45;212.67;;;73.80;;
21170;SDS011;10743;52.160;20.910;2022-11-15T16:28:31;222.30;;;77.87;;
21170;SDS011;10743;52.160;20.910;2022-11-15T16:31:08;209.83;;;68.93;;
21170;SDS011;10743;52.160;20.910;2022-11-15T16:33:37;212.83;;;69.80;;
21170;SDS011;10743;52.160;20.910;2022-11-15T16:36:06;207.10;;;67.07;;
21170;SDS011;10743;52.160;20.910;2022-11-15T16:38:54;210.60;;;68.33;;
21170;SDS011;10743;52.160;20.910;2022-11-15T16:41:21;209.17;;;69.47;;
21170;SDS011;10743;52.160;20.910;2022-11-15T16:43:48;219.77;;;71.27;;
21170;SDS011;10743;52.160;20.910;2022-11-15T16:46:19;214.53;;;69.27;;
21170;SDS011;10743;52.160;20.910;2022-11-15T16:48:50;219.87;;;72.10;;
21170;SDS011;10743;52.160;20.910;2022-11-15T16:51:19;213.53;;;69.67;;
21170;SDS011;10743;52.160;20.910;2022-11-15T16:53:46;233.20;;;126.77;;
21170;SDS011;10743;52.160;20.910;2022-11-15T16:56:25;210.33;;;69.57;;
21170;SDS011;10743;52.160;20.910;2022-11-15T16:58:54;218.57;;;79.30;;
21170;SDS011;10743;52.160;20.910;2022-11-15T17:01:24;211.73;;;68.47;;
21170;SDS011;10743;52.160;20.910;2022-11-15T17:03:57;203.93;;;66.80;;
21170;SDS011;10743;52.160;20.910;2022-11-15T17:06:25;214.60;;;74.17;;
21170;SDS011;10743;52.160;20.910;2022-11-15T17:08:52;211.27;;;68.97;;
21170;SDS011;10743;52.160;20.910;2022-11-15T17:11:20;214.13;;;68.37;;
21170;SDS011;10743;52.160;20.910;2022-11-15T17:13:48;219.63;;;69.00;;
21170;SDS011;10743;52.160;20.910;2022-11-15T17:16:16;202.57;;;68.10;;
21170;SDS011;10743;52.160;20.910;2022-11-15T17:18:43;212.73;;;69.37;;
21170;SDS011;10743;52.160;20.910;2022-11-15T17:21:15;214.17;;;69.53;;
21170;SDS011;10743;52.160;20.910;2022-11-15T17:23:45;201.63;;;66.10;;
21170;SDS011;10743;52.160;20.910;2022-11-15T17:26:13;213.77;;;68.17;;
21170;SDS011;10743;52.160;20.910;2022-11-15T17:29:01;208.33;;;69.47;;
21170;SDS011;10743;52.160;20.910;2022-11-15T17:31:29;212.20;;;68.53;;
21170;SDS011;10743;52.160;20.910;2022-11-15T17:33:59;209.80;;;67.60;;
21170;SDS011;10743;52.160;20.910;2022-11-15T17:36:27;199.50;;;66.90;;